Terminal Aerodrome Forecast
Issued by NWS

Home | Current Version | Previous Version | Text Only | Print | Product List | Glossary On
Versions: 1 2 3 4 5 6 7 8 9 10 11 12 13 14 15 16 17 18 19 20 21 22 23 24
000
FTUS45 KREV 250528
TAFTVL
TAF
KTVL 250528Z 2506/2606 20008KT P6SM VCSH SCT030 BKN050
     FM250800 19006KT P6SM SCT040 BKN070
      TEMPO 2509/2513 BKN025
     FM251700 06007KT P6SM SCT035 BKN120
     FM252300 17008KT P6SM SCT060 BKN120
     FM260200 VRB04KT P6SM SCT050 BKN100=

USA.gov is the U.S. government's official web portal to all federal, state and local government web resources and services.